sensor_id;sensor_type;location;lat;lon;timestamp;P1;durP1;ratioP1;P2;durP2;ratioP2
1154;SDS011;566;48.414;9.118;2023-05-13T00:00:15;6.97;;;5.65;;
1154;SDS011;566;48.414;9.118;2023-05-13T00:02:42;8.13;;;6.32;;
1154;SDS011;566;48.414;9.118;2023-05-13T00:05:07;8.95;;;6.28;;
1154;SDS011;566;48.414;9.118;2023-05-13T00:07:33;9.20;;;5.95;;
1154;SDS011;566;48.414;9.118;2023-05-13T00:09:59;8.07;;;6.93;;
1154;SDS011;566;48.414;9.118;2023-05-13T00:12:24;10.18;;;6.78;;
1154;SDS011;566;48.414;9.118;2023-05-13T00:14:50;7.78;;;6.32;;
1154;SDS011;566;48.414;9.118;2023-05-13T00:17:16;10.18;;;6.70;;
1154;SDS011;566;48.414;9.118;2023-05-13T00:19:41;7.88;;;6.55;;
1154;SDS011;566;48.414;9.118;2023-05-13T00:22:07;9.43;;;5.97;;
1154;SDS011;566;48.414;9.118;2023-05-13T00:24:32;8.43;;;5.70;;
1154;SDS011;566;48.414;9.118;2023-05-13T00:26:58;10.27;;;6.72;;
1154;SDS011;566;48.414;9.118;2023-05-13T00:29:23;7.68;;;5.75;;
1154;SDS011;566;48.414;9.118;2023-05-13T00:31:49;7.78;;;5.65;;
1154;SDS011;566;48.414;9.118;2023-05-13T00:34:15;9.30;;;6.40;;
1154;SDS011;566;48.414;9.118;2023-05-13T00:36:44;8.38;;;6.18;;
1154;SDS011;566;48.414;9.118;2023-05-13T00:39:09;8.30;;;6.60;;
1154;SDS011;566;48.414;9.118;2023-05-13T00:41:35;9.63;;;6.28;;
1154;SDS011;566;48.414;9.118;2023-05-13T00:44:03;9.35;;;7.55;;
1154;SDS011;566;48.414;9.118;2023-05-13T00:46:29;9.63;;;7.55;;
1154;SDS011;566;48.414;9.118;2023-05-13T00:48:57;8.82;;;6.45;;
1154;SDS011;566;48.414;9.118;2023-05-13T00:51:23;8.50;;;7.10;;
1154;SDS011;566;48.414;9.118;2023-05-13T00:53:49;10.32;;;7.30;;
1154;SDS011;566;48.414;9.118;2023-05-13T00:56:19;10.38;;;6.93;;
1154;SDS011;566;48.414;9.118;2023-05-13T00:58:48;9.77;;;7.05;;
1154;SDS011;566;48.414;9.118;2023-05-13T01:01:18;7.70;;;5.82;;
1154;SDS011;566;48.414;9.118;2023-05-13T01:12:12;8.07;;;6.20;;
1154;SDS011;566;48.414;9.118;2023-05-13T01:14:51;9.75;;;6.03;;
1154;SDS011;566;48.414;9.118;2023-05-13T01:17:38;8.65;;;7.00;;
1154;SDS011;566;48.414;9.118;2023-05-13T01:20:08;12.00;;;8.90;;
1154;SDS011;566;48.414;9.118;2023-05-13T01:22:36;14.43;;;9.68;;
1154;SDS011;566;48.414;9.118;2023-05-13T01:25:02;12.85;;;10.60;;
1154;SDS011;566;48.414;9.118;2023-05-13T01:27:27;13.60;;;11.40;;
1154;SDS011;566;48.414;9.118;2023-05-13T01:29:53;13.63;;;11.88;;
1154;SDS011;566;48.414;9.118;2023-05-13T01:32:20;17.25;;;13.55;;
1154;SDS011;566;48.414;9.118;2023-05-13T01:34:46;14.93;;;11.68;;
1154;SDS011;566;48.414;9.118;2023-05-13T01:37:13;15.15;;;11.98;;
1154;SDS011;566;48.414;9.118;2023-05-13T01:39:39;13.65;;;11.77;;
1154;SDS011;566;48.414;9.118;2023-05-13T01:42:05;13.77;;;11.73;;
1154;SDS011;566;48.414;9.118;2023-05-13T01:44:31;14.48;;;11.38;;
1154;SDS011;566;48.414;9.118;2023-05-13T01:46:57;11.98;;;10.77;;
1154;SDS011;566;48.414;9.118;2023-05-13T01:49:22;11.40;;;9.90;;
1154;SDS011;566;48.414;9.118;2023-05-13T01:51:48;11.15;;;9.25;;
1154;SDS011;566;48.414;9.118;2023-05-13T01:54:13;11.82;;;9.50;;
1154;SDS011;566;48.414;9.118;2023-05-13T01:56:39;12.38;;;9.77;;
1154;SDS011;566;48.414;9.118;2023-05-13T01:59:04;14.60;;;10.43;;
1154;SDS011;566;48.414;9.118;2023-05-13T02:01:30;11.80;;;9.88;;
1154;SDS011;566;48.414;9.118;2023-05-13T02:03:56;11.82;;;9.60;;
1154;SDS011;566;48.414;9.118;2023-05-13T02:06:23;12.10;;;10.18;;
1154;SDS011;566;48.414;9.118;2023-05-13T02:08:49;12.88;;;9.77;;
1154;SDS011;566;48.414;9.118;2023-05-13T02:11:14;10.88;;;9.20;;
1154;SDS011;566;48.414;9.118;2023-05-13T02:13:40;11.15;;;9.88;;
1154;SDS011;566;48.414;9.118;2023-05-13T02:16:06;11.77;;;10.20;;
1154;SDS011;566;48.414;9.118;2023-05-13T02:18:31;10.98;;;8.65;;
1154;SDS011;566;48.414;9.118;2023-05-13T02:20:57;11.40;;;9.13;;
1154;SDS011;566;48.414;9.118;2023-05-13T02:23:22;10.82;;;9.05;;
1154;SDS011;566;48.414;9.118;2023-05-13T02:25:48;11.95;;;9.43;;
1154;SDS011;566;48.414;9.118;2023-05-13T02:28:13;12.65;;;8.95;;
1154;SDS011;566;48.414;9.118;2023-05-13T02:30:39;10.65;;;9.02;;
1154;SDS011;566;48.414;9.118;2023-05-13T02:33:05;9.65;;;8.40;;
1154;SDS011;566;48.414;9.118;2023-05-13T02:35:31;10.10;;;8.13;;
1154;SDS011;566;48.414;9.118;2023-05-13T02:37:57;11.00;;;7.55;;
1154;SDS011;566;48.414;9.118;2023-05-13T02:40:22;11.05;;;8.35;;
1154;SDS011;566;48.414;9.118;2023-05-13T02:42:48;12.43;;;9.32;;
1154;SDS011;566;48.414;9.118;2023-05-13T02:45:14;11.35;;;10.10;;
1154;SDS011;566;48.414;9.118;2023-05-13T02:47:40;13.45;;;10.10;;
1154;SDS011;566;48.414;9.118;2023-05-13T02:50:06;14.85;;;10.05;;
1154;SDS011;566;48.414;9.118;2023-05-13T02:52:34;10.85;;;9.15;;
1154;SDS011;566;48.414;9.118;2023-05-13T02:55:03;11.68;;;10.15;;
1154;SDS011;566;48.414;9.118;2023-05-13T02:57:30;15.05;;;12.40;;
1154;SDS011;566;48.414;9.118;2023-05-13T02:59:56;13.25;;;11.80;;
1154;SDS011;566;48.414;9.118;2023-05-13T03:02:22;16.17;;;13.55;;
1154;SDS011;566;48.414;9.118;2023-05-13T03:04:47;16.90;;;14.25;;
1154;SDS011;566;48.414;9.118;2023-05-13T03:07:13;17.50;;;13.95;;
1154;SDS011;566;48.414;9.118;2023-05-13T03:09:38;14.70;;;12.82;;
1154;SDS011;566;48.414;9.118;2023-05-13T03:12:06;17.00;;;14.98;;
1154;SDS011;566;48.414;9.118;2023-05-13T03:14:32;18.35;;;14.93;;
1154;SDS011;566;48.414;9.118;2023-05-13T03:17:01;14.75;;;13.15;;
1154;SDS011;566;48.414;9.118;2023-05-13T03:19:31;17.58;;;15.68;;
1154;SDS011;566;48.414;9.118;2023-05-13T03:21:58;15.75;;;12.82;;
1154;SDS011;566;48.414;9.118;2023-05-13T03:24:23;15.07;;;13.38;;
1154;SDS011;566;48.414;9.118;2023-05-13T03:26:49;17.13;;;13.07;;
1154;SDS011;566;48.414;9.118;2023-05-13T03:29:14;14.65;;;12.05;;
1154;SDS011;566;48.414;9.118;2023-05-13T03:31:40;13.50;;;11.23;;
1154;SDS011;566;48.414;9.118;2023-05-13T03:34:05;12.93;;;11.13;;
1154;SDS011;566;48.414;9.118;2023-05-13T03:36:31;13.93;;;12.00;;
1154;SDS011;566;48.414;9.118;2023-05-13T03:39:00;23.33;;;19.00;;
1154;SDS011;566;48.414;9.118;2023-05-13T03:41:26;16.33;;;14.55;;
1154;SDS011;566;48.414;9.118;2023-05-13T03:43:52;14.77;;;12.88;;
1154;SDS011;566;48.414;9.118;2023-05-13T03:46:18;17.17;;;11.60;;
1154;SDS011;566;48.414;9.118;2023-05-13T03:48:45;12.93;;;10.98;;
1154;SDS011;566;48.414;9.118;2023-05-13T03:51:10;13.10;;;11.02;;
1154;SDS011;566;48.414;9.118;2023-05-13T03:53:39;12.23;;;10.18;;
1154;SDS011;566;48.414;9.118;2023-05-13T03:56:04;13.13;;;11.27;;
1154;SDS011;566;48.414;9.118;2023-05-13T03:58:30;14.48;;;12.43;;
1154;SDS011;566;48.414;9.118;2023-05-13T04:00:56;14.63;;;10.48;;
1154;SDS011;566;48.414;9.118;2023-05-13T04:03:24;14.77;;;10.75;;
1154;SDS011;566;48.414;9.118;2023-05-13T04:05:50;11.18;;;9.90;;
1154;SDS011;566;48.414;9.118;2023-05-13T04:08:16;13.48;;;9.90;;
1154;SDS011;566;48.414;9.118;2023-05-13T04:10:42;12.73;;;10.65;;
1154;SDS011;566;48.414;9.118;2023-05-13T04:13:08;13.30;;;10.93;;
1154;SDS011;566;48.414;9.118;2023-05-13T04:15:33;14.18;;;12.27;;
1154;SDS011;566;48.414;9.118;2023-05-13T04:17:59;13.10;;;10.80;;
1154;SDS011;566;48.414;9.118;2023-05-13T04:20:24;14.93;;;12.15;;
1154;SDS011;566;48.414;9.118;2023-05-13T04:22:50;12.98;;;10.05;;
1154;SDS011;566;48.414;9.118;2023-05-13T04:25:16;11.30;;;9.52;;
1154;SDS011;566;48.414;9.118;2023-05-13T04:27:41;13.45;;;11.98;;
1154;SDS011;566;48.414;9.118;2023-05-13T04:30:07;13.00;;;11.18;;
1154;SDS011;566;48.414;9.118;2023-05-13T04:32:33;12.50;;;10.32;;
1154;SDS011;566;48.414;9.118;2023-05-13T04:34:59;14.60;;;12.50;;
1154;SDS011;566;48.414;9.118;2023-05-13T04:37:25;13.70;;;11.52;;
1154;SDS011;566;48.414;9.118;2023-05-13T04:39:51;16.27;;;13.73;;
1154;SDS011;566;48.414;9.118;2023-05-13T04:42:16;12.35;;;10.38;;
1154;SDS011;566;48.414;9.118;2023-05-13T04:44:42;13.38;;;11.27;;
1154;SDS011;566;48.414;9.118;2023-05-13T04:47:08;16.83;;;11.95;;
1154;SDS011;566;48.414;9.118;2023-05-13T04:49:34;15.02;;;12.20;;
1154;SDS011;566;48.414;9.118;2023-05-13T04:52:00;14.77;;;12.63;;
1154;SDS011;566;48.414;9.118;2023-05-13T04:54:26;15.07;;;13.23;;
1154;SDS011;566;48.414;9.118;2023-05-13T04:56:52;16.95;;;13.73;;
1154;SDS011;566;48.414;9.118;2023-05-13T04:59:17;17.00;;;13.20;;
1154;SDS011;566;48.414;9.118;2023-05-13T05:01:43;17.30;;;13.20;;
1154;SDS011;566;48.414;9.118;2023-05-13T05:04:09;16.40;;;12.98;;
1154;SDS011;566;48.414;9.118;2023-05-13T05:06:35;17.48;;;13.40;;
1154;SDS011;566;48.414;9.118;2023-05-13T05:09:00;15.95;;;13.48;;
1154;SDS011;566;48.414;9.118;2023-05-13T05:11:26;18.23;;;15.23;;
1154;SDS011;566;48.414;9.118;2023-05-13T05:13:52;18.40;;;14.13;;
1154;SDS011;566;48.414;9.118;2023-05-13T05:16:20;15.77;;;13.55;;
1154;SDS011;566;48.414;9.118;2023-05-13T05:18:46;19.58;;;14.88;;
1154;SDS011;566;48.414;9.118;2023-05-13T05:21:11;13.95;;;11.95;;
1154;SDS011;566;48.414;9.118;2023-05-13T05:23:37;19.70;;;15.00;;
1154;SDS011;566;48.414;9.118;2023-05-13T05:26:03;15.90;;;13.45;;
1154;SDS011;566;48.414;9.118;2023-05-13T05:28:29;12.98;;;11.18;;
1154;SDS011;566;48.414;9.118;2023-05-13T05:30:54;21.20;;;16.85;;
1154;SDS011;566;48.414;9.118;2023-05-13T05:33:20;17.83;;;14.98;;
1154;SDS011;566;48.414;9.118;2023-05-13T05:35:46;19.85;;;15.95;;
1154;SDS011;566;48.414;9.118;2023-05-13T05:38:12;13.55;;;11.50;;
1154;SDS011;566;48.414;9.118;2023-05-13T05:40:39;14.15;;;12.57;;
1154;SDS011;566;48.414;9.118;2023-05-13T05:43:06;13.30;;;11.13;;
1154;SDS011;566;48.414;9.118;2023-05-13T05:45:35;17.65;;;11.23;;
1154;SDS011;566;48.414;9.118;2023-05-13T05:48:01;13.60;;;11.30;;
1154;SDS011;566;48.414;9.118;2023-05-13T05:50:27;11.52;;;10.02;;
1154;SDS011;566;48.414;9.118;2023-05-13T05:52:53;11.30;;;10.05;;
1154;SDS011;566;48.414;9.118;2023-05-13T05:55:19;13.65;;;10.68;;
1154;SDS011;566;48.414;9.118;2023-05-13T05:57:45;14.73;;;10.05;;
1154;SDS011;566;48.414;9.118;2023-05-13T06:00:11;10.75;;;8.98;;
1154;SDS011;566;48.414;9.118;2023-05-13T06:02:37;12.80;;;9.55;;
1154;SDS011;566;48.414;9.118;2023-05-13T06:05:03;12.55;;;10.75;;
1154;SDS011;566;48.414;9.118;2023-05-13T06:07:32;20.23;;;13.50;;
1154;SDS011;566;48.414;9.118;2023-05-13T06:09:57;13.02;;;9.82;;
1154;SDS011;566;48.414;9.118;2023-05-13T06:12:23;10.20;;;8.15;;
1154;SDS011;566;48.414;9.118;2023-05-13T06:14:48;10.35;;;7.78;;
1154;SDS011;566;48.414;9.118;2023-05-13T06:17:14;10.68;;;8.50;;
1154;SDS011;566;48.414;9.118;2023-05-13T06:19:40;10.82;;;8.27;;
1154;SDS011;566;48.414;9.118;2023-05-13T06:22:09;10.35;;;8.65;;
1154;SDS011;566;48.414;9.118;2023-05-13T06:24:35;12.27;;;9.05;;
1154;SDS011;566;48.414;9.118;2023-05-13T06:27:02;13.07;;;9.55;;
1154;SDS011;566;48.414;9.118;2023-05-13T06:29:28;9.45;;;7.78;;
1154;SDS011;566;48.414;9.118;2023-05-13T06:31:54;10.25;;;8.05;;
1154;SDS011;566;48.414;9.118;2023-05-13T06:34:20;8.75;;;6.75;;
1154;SDS011;566;48.414;9.118;2023-05-13T06:36:45;12.38;;;8.07;;
1154;SDS011;566;48.414;9.118;2023-05-13T06:39:11;11.13;;;7.80;;
1154;SDS011;566;48.414;9.118;2023-05-13T06:41:37;12.57;;;7.80;;
1154;SDS011;566;48.414;9.118;2023-05-13T06:44:04;9.55;;;7.22;;
1154;SDS011;566;48.414;9.118;2023-05-13T06:46:30;11.48;;;6.82;;
1154;SDS011;566;48.414;9.118;2023-05-13T06:48:59;8.65;;;6.57;;
1154;SDS011;566;48.414;9.118;2023-05-13T06:51:25;10.25;;;6.57;;
1154;SDS011;566;48.414;9.118;2023-05-13T06:53:51;9.63;;;7.55;;
1154;SDS011;566;48.414;9.118;2023-05-13T06:56:17;9.55;;;7.10;;
1154;SDS011;566;48.414;9.118;2023-05-13T06:58:43;12.00;;;7.53;;
1154;SDS011;566;48.414;9.118;2023-05-13T07:01:09;13.93;;;6.95;;
1154;SDS011;566;48.414;9.118;2023-05-13T07:03:35;10.23;;;7.95;;
1154;SDS011;566;48.414;9.118;2023-05-13T07:06:01;8.05;;;6.90;;
1154;SDS011;566;48.414;9.118;2023-05-13T07:08:28;13.70;;;8.60;;
1154;SDS011;566;48.414;9.118;2023-05-13T07:10:54;11.07;;;7.82;;
1154;SDS011;566;48.414;9.118;2023-05-13T07:13:19;8.77;;;7.00;;
1154;SDS011;566;48.414;9.118;2023-05-13T07:15:46;9.90;;;7.85;;
1154;SDS011;566;48.414;9.118;2023-05-13T07:18:12;10.27;;;8.00;;
1154;SDS011;566;48.414;9.118;2023-05-13T07:20:37;12.70;;;8.63;;
1154;SDS011;566;48.414;9.118;2023-05-13T07:23:03;13.40;;;9.27;;
1154;SDS011;566;48.414;9.118;2023-05-13T07:25:29;11.20;;;7.28;;
1154;SDS011;566;48.414;9.118;2023-05-13T07:27:54;10.25;;;8.55;;
1154;SDS011;566;48.414;9.118;2023-05-13T07:30:20;8.45;;;7.22;;
1154;SDS011;566;48.414;9.118;2023-05-13T07:32:46;10.93;;;8.90;;
1154;SDS011;566;48.414;9.118;2023-05-13T07:35:11;11.77;;;7.55;;
1154;SDS011;566;48.414;9.118;2023-05-13T07:37:37;10.00;;;7.28;;
1154;SDS011;566;48.414;9.118;2023-05-13T07:40:03;9.57;;;7.60;;
1154;SDS011;566;48.414;9.118;2023-05-13T07:42:30;9.90;;;7.82;;
1154;SDS011;566;48.414;9.118;2023-05-13T07:44:56;9.23;;;7.07;;
1154;SDS011;566;48.414;9.118;2023-05-13T07:47:21;12.38;;;8.27;;
1154;SDS011;566;48.414;9.118;2023-05-13T07:49:47;13.13;;;8.35;;
1154;SDS011;566;48.414;9.118;2023-05-13T07:52:13;8.50;;;7.10;;
1154;SDS011;566;48.414;9.118;2023-05-13T07:54:39;10.82;;;8.63;;
1154;SDS011;566;48.414;9.118;2023-05-13T07:57:04;8.90;;;7.50;;
1154;SDS011;566;48.414;9.118;2023-05-13T07:59:31;14.07;;;9.98;;
1154;SDS011;566;48.414;9.118;2023-05-13T08:01:58;13.13;;;8.60;;
1154;SDS011;566;48.414;9.118;2023-05-13T08:04:23;9.43;;;7.22;;
1154;SDS011;566;48.414;9.118;2023-05-13T08:06:49;11.40;;;7.28;;
1154;SDS011;566;48.414;9.118;2023-05-13T08:09:15;9.98;;;7.35;;
1154;SDS011;566;48.414;9.118;2023-05-13T08:11:41;10.18;;;7.50;;
1154;SDS011;566;48.414;9.118;2023-05-13T08:14:06;10.93;;;6.80;;
1154;SDS011;566;48.414;9.118;2023-05-13T08:16:35;15.52;;;8.75;;
1154;SDS011;566;48.414;9.118;2023-05-13T08:19:01;9.77;;;6.95;;
1154;SDS011;566;48.414;9.118;2023-05-13T08:21:27;9.93;;;7.80;;
1154;SDS011;566;48.414;9.118;2023-05-13T08:23:53;10.40;;;7.35;;
1154;SDS011;566;48.414;9.118;2023-05-13T08:26:19;10.65;;;7.15;;
1154;SDS011;566;48.414;9.118;2023-05-13T08:28:44;9.55;;;6.82;;
1154;SDS011;566;48.414;9.118;2023-05-13T08:31:10;9.75;;;7.30;;
1154;SDS011;566;48.414;9.118;2023-05-13T08:33:36;14.35;;;8.13;;
1154;SDS011;566;48.414;9.118;2023-05-13T08:36:02;9.25;;;6.40;;
1154;SDS011;566;48.414;9.118;2023-05-13T08:38:27;9.43;;;7.13;;
1154;SDS011;566;48.414;9.118;2023-05-13T08:40:53;9.82;;;6.13;;
1154;SDS011;566;48.414;9.118;2023-05-13T08:43:19;7.85;;;6.32;;
1154;SDS011;566;48.414;9.118;2023-05-13T08:45:46;10.38;;;6.82;;
1154;SDS011;566;48.414;9.118;2023-05-13T08:48:14;11.30;;;6.97;;
1154;SDS011;566;48.414;9.118;2023-05-13T08:50:40;10.20;;;7.65;;
1154;SDS011;566;48.414;9.118;2023-05-13T08:53:07;10.43;;;7.35;;
1154;SDS011;566;48.414;9.118;2023-05-13T08:55:35;8.00;;;6.60;;
1154;SDS011;566;48.414;9.118;2023-05-13T08:58:03;11.57;;;7.32;;
1154;SDS011;566;48.414;9.118;2023-05-13T09:00:33;13.38;;;7.97;;
1154;SDS011;566;48.414;9.118;2023-05-13T09:02:59;16.30;;;9.15;;
1154;SDS011;566;48.414;9.118;2023-05-13T09:05:25;11.13;;;7.75;;
1154;SDS011;566;48.414;9.118;2023-05-13T09:07:51;13.60;;;8.73;;
1154;SDS011;566;48.414;9.118;2023-05-13T09:10:17;14.52;;;8.90;;
1154;SDS011;566;48.414;9.118;2023-05-13T09:12:48;13.98;;;9.10;;
1154;SDS011;566;48.414;9.118;2023-05-13T09:15:16;12.50;;;8.30;;
1154;SDS011;566;48.414;9.118;2023-05-13T09:17:43;9.13;;;6.70;;
1154;SDS011;566;48.414;9.118;2023-05-13T09:20:12;11.57;;;7.75;;
1154;SDS011;566;48.414;9.118;2023-05-13T09:22:49;12.77;;;8.38;;
1154;SDS011;566;48.414;9.118;2023-05-13T09:25:17;17.50;;;8.43;;
1154;SDS011;566;48.414;9.118;2023-05-13T09:27:49;11.15;;;8.20;;
1154;SDS011;566;48.414;9.118;2023-05-13T09:30:16;11.32;;;8.07;;
1154;SDS011;566;48.414;9.118;2023-05-13T09:32:44;11.32;;;8.27;;
1154;SDS011;566;48.414;9.118;2023-05-13T09:35:33;16.30;;;8.20;;
1154;SDS011;566;48.414;9.118;2023-05-13T09:38:01;11.00;;;6.97;;
1154;SDS011;566;48.414;9.118;2023-05-13T09:40:40;10.18;;;6.38;;
1154;SDS011;566;48.414;9.118;2023-05-13T09:43:14;10.05;;;7.03;;
1154;SDS011;566;48.414;9.118;2023-05-13T09:45:44;10.75;;;7.45;;
1154;SDS011;566;48.414;9.118;2023-05-13T09:48:11;10.90;;;8.00;;
1154;SDS011;566;48.414;9.118;2023-05-13T09:50:47;10.73;;;7.40;;
1154;SDS011;566;48.414;9.118;2023-05-13T09:53:14;10.43;;;7.85;;
1154;SDS011;566;48.414;9.118;2023-05-13T09:55:45;12.50;;;7.80;;
1154;SDS011;566;48.414;9.118;2023-05-13T09:58:15;12.23;;;6.70;;
1154;SDS011;566;48.414;9.118;2023-05-13T10:00:41;9.02;;;6.82;;
1154;SDS011;566;48.414;9.118;2023-05-13T10:03:13;12.25;;;7.30;;
1154;SDS011;566;48.414;9.118;2023-05-13T10:05:39;13.80;;;7.32;;
1154;SDS011;566;48.414;9.118;2023-05-13T10:08:09;11.88;;;7.75;;
1154;SDS011;566;48.414;9.118;2023-05-13T10:10:36;13.57;;;8.57;;
1154;SDS011;566;48.414;9.118;2023-05-13T10:13:09;15.15;;;8.55;;
1154;SDS011;566;48.414;9.118;2023-05-13T10:15:42;10.13;;;7.22;;
1154;SDS011;566;48.414;9.118;2023-05-13T10:18:21;12.30;;;8.38;;
1154;SDS011;566;48.414;9.118;2023-05-13T10:23:19;12.23;;;7.65;;
1154;SDS011;566;48.414;9.118;2023-05-13T10:25:49;14.50;;;8.93;;
1154;SDS011;566;48.414;9.118;2023-05-13T10:28:15;12.30;;;8.20;;
1154;SDS011;566;48.414;9.118;2023-05-13T10:30:41;15.30;;;8.73;;
1154;SDS011;566;48.414;9.118;2023-05-13T10:33:08;11.57;;;7.65;;
1154;SDS011;566;48.414;9.118;2023-05-13T10:35:35;14.80;;;8.63;;
1154;SDS011;566;48.414;9.118;2023-05-13T10:38:09;12.35;;;8.95;;
1154;SDS011;566;48.414;9.118;2023-05-13T10:40:59;12.93;;;8.07;;
1154;SDS011;566;48.414;9.118;2023-05-13T10:43:34;12.32;;;8.25;;
1154;SDS011;566;48.414;9.118;2023-05-13T10:46:01;12.43;;;8.13;;
1154;SDS011;566;48.414;9.118;2023-05-13T10:51:27;12.90;;;8.07;;
1154;SDS011;566;48.414;9.118;2023-05-13T10:53:53;12.23;;;8.77;;
1154;SDS011;566;48.414;9.118;2023-05-13T10:56:21;13.95;;;8.63;;
1154;SDS011;566;48.414;9.118;2023-05-13T10:58:59;13.77;;;9.25;;
1154;SDS011;566;48.414;9.118;2023-05-13T11:01:27;12.60;;;8.23;;
1154;SDS011;566;48.414;9.118;2023-05-13T11:04:00;11.05;;;7.55;;
1154;SDS011;566;48.414;9.118;2023-05-13T11:06:28;11.10;;;8.07;;
1154;SDS011;566;48.414;9.118;2023-05-13T11:09:10;12.50;;;8.07;;
1154;SDS011;566;48.414;9.118;2023-05-13T11:11:37;12.55;;;8.65;;
1154;SDS011;566;48.414;9.118;2023-05-13T11:14:13;10.13;;;7.65;;
1154;SDS011;566;48.414;9.118;2023-05-13T11:16:47;12.15;;;7.65;;
1154;SDS011;566;48.414;9.118;2023-05-13T11:19:30;12.75;;;9.15;;
1154;SDS011;566;48.414;9.118;2023-05-13T11:22:18;11.75;;;8.32;;
1154;SDS011;566;48.414;9.118;2023-05-13T11:25:01;10.07;;;7.50;;
1154;SDS011;566;48.414;9.118;2023-05-13T11:27:32;11.97;;;8.40;;
1154;SDS011;566;48.414;9.118;2023-05-13T11:30:04;11.73;;;8.90;;
1154;SDS011;566;48.414;9.118;2023-05-13T11:35:21;11.80;;;7.03;;
1154;SDS011;566;48.414;9.118;2023-05-13T11:37:48;9.43;;;6.82;;
1154;SDS011;566;48.414;9.118;2023-05-13T11:40:20;11.55;;;7.28;;
1154;SDS011;566;48.414;9.118;2023-05-13T11:42:46;11.15;;;8.10;;
1154;SDS011;566;48.414;9.118;2023-05-13T11:45:12;10.45;;;7.07;;
1154;SDS011;566;48.414;9.118;2023-05-13T11:47:38;11.52;;;7.70;;
1154;SDS011;566;48.414;9.118;2023-05-13T11:50:15;10.45;;;8.18;;
1154;SDS011;566;48.414;9.118;2023-05-13T11:52:44;9.90;;;7.40;;
1154;SDS011;566;48.414;9.118;2023-05-13T11:55:23;12.25;;;8.77;;
1154;SDS011;566;48.414;9.118;2023-05-13T11:57:50;10.00;;;7.88;;
1154;SDS011;566;48.414;9.118;2023-05-13T12:00:15;9.90;;;7.53;;
1154;SDS011;566;48.414;9.118;2023-05-13T12:02:41;11.80;;;6.88;;
1154;SDS011;566;48.414;9.118;2023-05-13T12:05:08;12.55;;;8.57;;
1154;SDS011;566;48.414;9.118;2023-05-13T12:07:36;8.63;;;6.90;;
1154;SDS011;566;48.414;9.118;2023-05-13T12:10:02;10.15;;;7.20;;
1154;SDS011;566;48.414;9.118;2023-05-13T12:12:30;10.50;;;7.35;;
1154;SDS011;566;48.414;9.118;2023-05-13T12:15:00;8.75;;;6.88;;
1154;SDS011;566;48.414;9.118;2023-05-13T12:17:27;9.55;;;6.95;;
1154;SDS011;566;48.414;9.118;2023-05-13T12:20:10;8.65;;;6.68;;
1154;SDS011;566;48.414;9.118;2023-05-13T12:28:05;10.02;;;7.40;;
1154;SDS011;566;48.414;9.118;2023-05-13T12:30:36;9.20;;;6.20;;
1154;SDS011;566;48.414;9.118;2023-05-13T12:33:02;11.20;;;5.60;;
1154;SDS011;566;48.414;9.118;2023-05-13T12:35:32;8.55;;;6.10;;
1154;SDS011;566;48.414;9.118;2023-05-13T12:38:06;9.90;;;6.93;;
1154;SDS011;566;48.414;9.118;2023-05-13T12:40:35;7.25;;;5.95;;
1154;SDS011;566;48.414;9.118;2023-05-13T12:43:00;9.68;;;6.28;;
1154;SDS011;566;48.414;9.118;2023-05-13T12:45:30;9.32;;;5.82;;
1154;SDS011;566;48.414;9.118;2023-05-13T12:47:58;8.82;;;6.43;;
1154;SDS011;566;48.414;9.118;2023-05-13T12:50:25;10.70;;;6.63;;
1154;SDS011;566;48.414;9.118;2023-05-13T12:52:51;9.40;;;6.85;;
1154;SDS011;566;48.414;9.118;2023-05-13T12:55:17;7.18;;;5.60;;
1154;SDS011;566;48.414;9.118;2023-05-13T12:57:43;7.35;;;5.40;;
1154;SDS011;566;48.414;9.118;2023-05-13T13:00:23;10.30;;;5.78;;
1154;SDS011;566;48.414;9.118;2023-05-13T13:02:49;7.35;;;5.20;;
1154;SDS011;566;48.414;9.118;2023-05-13T13:05:15;7.03;;;5.57;;
1154;SDS011;566;48.414;9.118;2023-05-13T13:07:41;6.97;;;5.57;;
1154;SDS011;566;48.414;9.118;2023-05-13T13:10:07;8.77;;;5.47;;
1154;SDS011;566;48.414;9.118;2023-05-13T13:12:33;8.07;;;5.30;;
1154;SDS011;566;48.414;9.118;2023-05-13T13:15:02;7.70;;;5.53;;
1154;SDS011;566;48.414;9.118;2023-05-13T13:17:42;8.43;;;4.55;;
1154;SDS011;566;48.414;9.118;2023-05-13T13:20:09;6.32;;;4.50;;
1154;SDS011;566;48.414;9.118;2023-05-13T13:22:36;6.45;;;5.00;;
1154;SDS011;566;48.414;9.118;2023-05-13T13:25:06;7.68;;;4.85;;
1154;SDS011;566;48.414;9.118;2023-05-13T13:27:32;7.55;;;5.80;;
1154;SDS011;566;48.414;9.118;2023-05-13T13:29:58;6.85;;;5.20;;
1154;SDS011;566;48.414;9.118;2023-05-13T13:32:25;10.32;;;5.43;;
1154;SDS011;566;48.414;9.118;2023-05-13T13:34:51;7.72;;;5.60;;
1154;SDS011;566;48.414;9.118;2023-05-13T13:37:17;8.50;;;5.25;;
1154;SDS011;566;48.414;9.118;2023-05-13T13:39:43;6.95;;;5.22;;
1154;SDS011;566;48.414;9.118;2023-05-13T13:42:10;9.20;;;6.60;;
1154;SDS011;566;48.414;9.118;2023-05-13T13:44:36;10.32;;;6.93;;
1154;SDS011;566;48.414;9.118;2023-05-13T13:47:03;11.90;;;6.05;;
1154;SDS011;566;48.414;9.118;2023-05-13T13:49:29;8.43;;;6.15;;
1154;SDS011;566;48.414;9.118;2023-05-13T13:51:55;7.53;;;5.88;;
1154;SDS011;566;48.414;9.118;2023-05-13T13:54:21;8.80;;;5.75;;
1154;SDS011;566;48.414;9.118;2023-05-13T13:56:47;8.48;;;6.10;;
1154;SDS011;566;48.414;9.118;2023-05-13T13:59:14;9.05;;;6.10;;
1154;SDS011;566;48.414;9.118;2023-05-13T14:01:44;7.53;;;5.65;;
1154;SDS011;566;48.414;9.118;2023-05-13T14:04:11;8.55;;;6.05;;
1154;SDS011;566;48.414;9.118;2023-05-13T14:06:39;11.63;;;7.25;;
1154;SDS011;566;48.414;9.118;2023-05-13T14:09:05;8.55;;;5.85;;
1154;SDS011;566;48.414;9.118;2023-05-13T14:11:31;7.38;;;4.80;;
1154;SDS011;566;48.414;9.118;2023-05-13T14:13:56;7.93;;;5.70;;
1154;SDS011;566;48.414;9.118;2023-05-13T14:16:22;7.90;;;6.05;;
1154;SDS011;566;48.414;9.118;2023-05-13T14:18:50;8.07;;;6.30;;
1154;SDS011;566;48.414;9.118;2023-05-13T14:21:16;7.72;;;6.15;;
1154;SDS011;566;48.414;9.118;2023-05-13T14:23:41;7.45;;;5.47;;
1154;SDS011;566;48.414;9.118;2023-05-13T14:26:07;8.02;;;6.10;;
1154;SDS011;566;48.414;9.118;2023-05-13T14:28:34;6.90;;;5.30;;
1154;SDS011;566;48.414;9.118;2023-05-13T14:31:00;11.80;;;7.15;;
1154;SDS011;566;48.414;9.118;2023-05-13T14:33:25;9.25;;;6.45;;
1154;SDS011;566;48.414;9.118;2023-05-13T14:35:51;7.97;;;5.90;;
1154;SDS011;566;48.414;9.118;2023-05-13T14:38:17;9.77;;;5.93;;
1154;SDS011;566;48.414;9.118;2023-05-13T14:40:42;10.95;;;7.45;;
1154;SDS011;566;48.414;9.118;2023-05-13T14:43:08;11.10;;;6.72;;
1154;SDS011;566;48.414;9.118;2023-05-13T14:45:34;8.73;;;6.95;;
1154;SDS011;566;48.414;9.118;2023-05-13T14:48:00;7.78;;;6.32;;
1154;SDS011;566;48.414;9.118;2023-05-13T14:50:25;9.68;;;6.47;;
1154;SDS011;566;48.414;9.118;2023-05-13T14:52:51;9.93;;;7.00;;
1154;SDS011;566;48.414;9.118;2023-05-13T14:55:17;8.55;;;6.28;;
1154;SDS011;566;48.414;9.118;2023-05-13T14:57:42;7.80;;;5.78;;
1154;SDS011;566;48.414;9.118;2023-05-13T15:00:12;10.00;;;6.63;;
1154;SDS011;566;48.414;9.118;2023-05-13T15:02:37;9.48;;;6.63;;
1154;SDS011;566;48.414;9.118;2023-05-13T15:05:03;7.85;;;6.35;;
1154;SDS011;566;48.414;9.118;2023-05-13T15:07:33;9.48;;;7.15;;
1154;SDS011;566;48.414;9.118;2023-05-13T15:09:59;8.82;;;7.18;;
1154;SDS011;566;48.414;9.118;2023-05-13T15:12:25;10.57;;;7.60;;
1154;SDS011;566;48.414;9.118;2023-05-13T15:14:51;8.55;;;6.88;;
1154;SDS011;566;48.414;9.118;2023-05-13T15:17:21;9.55;;;7.47;;
1154;SDS011;566;48.414;9.118;2023-05-13T15:19:47;9.20;;;7.10;;
1154;SDS011;566;48.414;9.118;2023-05-13T15:22:13;10.07;;;7.50;;
1154;SDS011;566;48.414;9.118;2023-05-13T15:24:40;8.98;;;7.32;;
1154;SDS011;566;48.414;9.118;2023-05-13T15:27:06;8.30;;;6.47;;
1154;SDS011;566;48.414;9.118;2023-05-13T15:29:32;9.23;;;7.32;;
1154;SDS011;566;48.414;9.118;2023-05-13T15:32:03;8.90;;;6.93;;
1154;SDS011;566;48.414;9.118;2023-05-13T15:34:33;8.35;;;6.70;;
1154;SDS011;566;48.414;9.118;2023-05-13T15:36:59;7.93;;;6.25;;
1154;SDS011;566;48.414;9.118;2023-05-13T15:39:24;7.55;;;6.10;;